Airfield :
LOGIN :

Register | Disclaimer

   EN    FR    IT 

 










Legend :    VFR   Marginal VFR   IFR   Intensive IFR   Very Intensive IFR
Visi :
Ceiling :
>= 8 km
>= 3000ft
5 to 8 km
1000 to 3000 ft
1500m to 5 km
500 to 1000 ft
800 to 1500m
200 to 500 ft
< 800m
< 200 ft
Symbols :   Thunderstorms  Fog  Heavy snow  Heavy precipitations  Wind > 20 kt
SIGMETs :     Misc.  Thunderstorms  Icing  Turbulence  Mountain Waves  Volcanic Ashes







- Airport Elevation : 245 ft


ETHS - Fassberg

CURRENT METAR :
  • 221920Z 06003KT 9999 FEW025 BKN050 M00/M03 Q1025 BLU

EXPIRED METARs :
  • 221820Z 08003KT 9999 SCT020 BKN050 M00/M04 Q1025 BLU
  • 221720Z 07005KT 9999 SCT030 BKN040 00/M04 Q1025 BLU

TAF AMD TAF ETHS
Valid from the 22 at 15:00 until the 23 at 00:00 UTC


221536Z 2215/2224 00808KT 8000 NSW SCT025
BECMG 2218/2220 09003KT 5000 BR SCT020 CANCEL 1600
No reported NOTAMs for that airfield.



MET'MAP, your aeronautical weather chart ! - Copyright ORBIFLY December 2007 - Disclaimer

ORBIFLY MET'MAP TEAM :

Programming & Development : Alexandra Zaïnal
Concept & Development : Baudouin d'Aumeries
Co-Development & Prog : Marc-Olivier Méhu
Technical & hardware support : Manuel Goepfert

Contact : metmap@orbifly.com




SOURCES & CREDITS :

   NOAA